createdAt,value
2022-12-08T00:05:44.599Z,30.80
2022-12-08T00:13:50.034Z,27.80
2022-12-08T00:21:58.447Z,31.42
2022-12-08T00:30:03.887Z,34.65
2022-12-08T00:38:11.846Z,31.55
2022-12-08T00:46:17.331Z,33.20
2022-12-08T00:54:25.856Z,42.95
2022-12-08T01:02:32.626Z,37.85
2022-12-08T01:10:42.467Z,41.33
2022-12-08T01:18:47.877Z,32.35
2022-12-08T01:26:55.940Z,34.22
2022-12-08T01:35:01.834Z,32.22
2022-12-08T01:43:09.917Z,31.63
2022-12-08T01:51:15.664Z,31.42
2022-12-08T01:59:23.912Z,32.03
2022-12-08T02:07:29.455Z,28.98
2022-12-08T02:15:44.704Z,27.50
2022-12-08T02:23:57.206Z,23.75
2022-12-08T02:32:20.989Z,23.90
2022-12-08T02:40:35.494Z,24.38
2022-12-08T02:48:41.483Z,22.92
2022-12-08T02:57:12.417Z,23.67
2022-12-08T03:05:32.629Z,26.00
2022-12-08T03:13:45.197Z,28.30
2022-12-08T03:21:53.463Z,26.33
2022-12-08T03:30:03.581Z,27.40
2022-12-08T03:38:12.709Z,25.02
2022-12-08T03:54:28.589Z,24.13
2022-12-08T04:02:36.866Z,22.15
2022-12-08T04:10:42.349Z,21.65
2022-12-08T04:18:50.766Z,22.63
2022-12-08T04:26:56.120Z,23.48
2022-12-08T04:35:04.145Z,21.60
2022-12-08T04:43:09.729Z,22.40
2022-12-08T04:51:21.713Z,17.80
2022-12-08T04:59:27.142Z,17.48
2022-12-08T05:07:35.396Z,18.42
2022-12-08T05:15:40.725Z,20.13
2022-12-08T05:23:48.734Z,18.75
2022-12-08T05:31:54.405Z,19.67
2022-12-08T05:40:03.986Z,20.25
2022-12-08T05:48:09.647Z,21.48
2022-12-08T05:56:18.096Z,18.73
2022-12-08T06:04:23.526Z,18.63
2022-12-08T06:12:31.587Z,18.73
2022-12-08T06:20:38.558Z,16.35
2022-12-08T06:28:46.943Z,16.70
2022-12-08T06:36:52.349Z,18.25
2022-12-08T06:45:09.364Z,17.45
2022-12-08T06:53:15.159Z,16.85
2022-12-08T07:01:23.338Z,18.40
2022-12-08T07:09:29.529Z,17.13
2022-12-08T07:17:37.590Z,18.42
2022-12-08T07:25:42.924Z,17.75
2022-12-08T07:33:51.258Z,20.77
2022-12-08T07:41:56.757Z,16.80
2022-12-08T07:50:05.401Z,14.18
2022-12-08T07:58:11.233Z,12.50
2022-12-08T08:06:19.358Z,12.13
2022-12-08T08:14:24.712Z,11.80
2022-12-08T08:22:32.825Z,12.15
2022-12-08T08:30:38.470Z,10.77
2022-12-08T08:38:46.755Z,10.63
2022-12-08T08:46:52.950Z,10.80
2022-12-08T08:55:02.690Z,10.95
2022-12-08T09:03:08.206Z,11.68
2022-12-08T09:11:18.694Z,10.95
2022-12-08T09:19:24.883Z,10.02
2022-12-08T09:27:34.185Z,11.23
2022-12-08T09:35:39.962Z,10.32
2022-12-08T09:44:03.813Z,10.50
2022-12-08T09:52:18.787Z,12.30
2022-12-08T10:00:27.481Z,9.88
2022-12-08T10:08:45.386Z,13.50
2022-12-08T10:17:00.034Z,20.20
2022-12-08T10:25:22.313Z,49.92
2022-12-08T10:33:31.354Z,27.83
2022-12-08T10:41:36.798Z,13.38
2022-12-08T10:49:48.570Z,12.48
2022-12-08T10:57:54.171Z,11.55
2022-12-08T11:06:09.118Z,9.20
2022-12-08T11:14:22.222Z,9.25
2022-12-08T11:22:33.743Z,9.10
2022-12-08T11:30:43.992Z,8.55
2022-12-08T11:38:55.041Z,10.45
2022-12-08T11:47:04.591Z,9.48
2022-12-08T11:55:37.188Z,9.05
2022-12-08T12:03:50.176Z,7.30
2022-12-08T12:12:24.631Z,7.22
2022-12-08T12:20:33.044Z,6.97
2022-12-08T12:28:47.127Z,7.97
2022-12-08T12:36:55.409Z,9.32
2022-12-08T12:45:30.173Z,7.20
2022-12-08T12:53:51.679Z,7.07
2022-12-08T13:02:02.824Z,8.80
2022-12-08T13:10:22.629Z,8.02
2022-12-08T13:18:39.327Z,8.38
2022-12-08T13:26:50.395Z,9.02
2022-12-08T13:35:00.803Z,9.38
2022-12-08T13:43:19.081Z,11.55
2022-12-08T14:00:03.429Z,12.38
2022-12-08T14:08:58.048Z,12.52
2022-12-08T14:16:56.332Z,11.65
2022-12-08T14:25:05.723Z,13.80
2022-12-08T14:33:18.092Z,13.07
2022-12-08T14:41:29.653Z,18.27
2022-12-08T14:49:35.946Z,17.42
2022-12-08T14:57:44.052Z,13.73
2022-12-08T15:05:53.368Z,15.00
2022-12-08T15:14:01.560Z,15.18
2022-12-08T15:22:16.725Z,15.07
2022-12-08T15:30:26.639Z,15.48
2022-12-08T15:38:33.529Z,15.65
2022-12-08T15:46:41.754Z,14.50
2022-12-08T15:54:47.385Z,12.90
2022-12-08T16:12:04.818Z,11.75
2022-12-08T16:20:03.901Z,11.35
2022-12-08T16:28:51.730Z,11.02
2022-12-08T16:36:44.079Z,12.98
2022-12-08T16:44:49.461Z,27.08
2022-12-08T16:53:02.563Z,27.30
2022-12-08T17:01:13.667Z,25.80
2022-12-08T17:09:45.927Z,25.42
2022-12-08T17:17:58.766Z,29.45
2022-12-08T17:26:08.099Z,29.73
2022-12-08T17:34:20.194Z,36.65
2022-12-08T17:42:31.703Z,32.28
2022-12-08T17:50:41.608Z,34.70
2022-12-08T17:58:54.805Z,33.88
2022-12-08T18:07:01.880Z,32.90
2022-12-08T18:15:17.194Z,31.27
2022-12-08T18:23:22.721Z,30.38
2022-12-08T18:31:31.905Z,39.35
2022-12-08T18:39:42.840Z,42.80
2022-12-08T18:47:54.870Z,39.58
2022-12-08T18:56:01.848Z,40.22
2022-12-08T19:04:28.726Z,28.70
2022-12-08T19:12:34.840Z,23.77
2022-12-08T19:20:42.940Z,24.77
2022-12-08T19:28:50.128Z,24.85
2022-12-08T19:36:59.974Z,29.27
2022-12-08T19:45:12.118Z,39.13
2022-12-08T19:53:21.135Z,40.47
2022-12-08T20:01:29.192Z,38.08
2022-12-08T20:09:37.985Z,34.35
2022-12-08T20:17:46.329Z,28.40
2022-12-08T20:25:57.031Z,26.88
2022-12-08T20:34:04.307Z,26.75
2022-12-08T20:42:15.569Z,28.08
2022-12-08T20:50:23.632Z,34.25
2022-12-08T20:58:31.975Z,31.45
2022-12-08T21:06:38.911Z,30.80
2022-12-08T21:14:52.437Z,37.33
2022-12-08T21:22:59.349Z,36.35
2022-12-08T21:31:14.413Z,29.80
2022-12-08T21:39:20.439Z,28.30
2022-12-08T21:47:28.999Z,30.35
2022-12-08T21:55:34.667Z,30.35
2022-12-08T22:03:46.871Z,28.83
2022-12-08T22:11:52.408Z,29.67
2022-12-08T22:20:00.550Z,28.48
2022-12-08T22:28:06.767Z,25.88
2022-12-08T22:36:19.967Z,25.50
2022-12-08T22:44:25.628Z,24.47
2022-12-08T22:52:33.720Z,26.42
2022-12-08T23:00:39.479Z,29.00
2022-12-08T23:08:48.165Z,30.48
2022-12-08T23:16:53.616Z,27.98
2022-12-08T23:25:01.707Z,42.33
2022-12-08T23:33:07.237Z,34.55
2022-12-08T23:41:17.461Z,34.58
2022-12-08T23:49:23.579Z,32.60
2022-12-08T23:57:32.445Z,31.90
